Terminal Aerodrome Forecast
Issued by NWS

Home | Current Version | Previous Version | Text Only | Print | Product List | Glossary On
Versions: 1 2 3 4 5 6 7 8 9 10 11 12 13 14 15 16 17 18 19
000
FTUS43 KFGF 192300
TAFBJI
TAF
KBJI 192323Z 2000/2024 16010KT 2SM -SN BR OVC005
      TEMPO 2000/2004 OVC003
     FM200400 15006KT 2SM BR OVC003=

USA.gov is the U.S. government's official web portal to all federal, state and local government web resources and services.